Time;durP1;ratioP1;P1;durP2;ratioP2;P2;SDS_P1;SDS_P2;PMS_P1;PMS_P2;Temp;Humidity;BMP_temperature;BMP_pressure;BME280_temperature;BME280_humidity;BME280_pressure;Samples;Min_cycle;Max_cycle;Signal;HPM_P1;HPM_P2
2021/06/25 00:02:17;;;;;;;7.63;7.00;;;21.20;99.90;;;;;;5073859;28;20952;-66
2021/06/25 00:04:46;;;;;;;7.97;7.33;;;21.20;99.90;;;;;;5064128;28;20462;-66
2021/06/25 00:07:12;;;;;;;9.07;8.30;;;21.20;99.90;;;;;;5072127;28;20494;-66
2021/06/25 00:09:39;;;;;;;8.20;7.60;;;21.20;99.90;;;;;;5061906;28;20478;-66
2021/06/25 00:12:08;;;;;;;7.90;7.27;;;21.20;99.90;;;;;;5074123;28;20506;-66
2021/06/25 00:14:35;;;;;;;7.80;7.30;;;21.20;99.90;;;;;;5073434;28;21294;-66
2021/06/25 00:17:03;;;;;;;9.90;9.00;;;21.20;99.90;;;;;;5069409;28;20478;-66
2021/06/25 00:19:30;;;;;;;6.70;6.30;;;21.20;99.90;;;;;;5073545;28;20470;-65
2021/06/25 00:21:58;;;;;;;7.53;6.93;;;21.20;99.90;;;;;;5074133;28;20527;-66
2021/06/25 00:24:26;;;;;;;10.10;9.20;;;21.20;99.90;;;;;;5072493;28;20547;-66
2021/06/25 00:26:53;;;;;;;9.10;8.30;;;21.30;99.90;;;;;;5073756;28;20532;-66
2021/06/25 00:29:20;;;;;;;9.67;8.87;;;21.20;99.90;;;;;;5073359;28;20478;-66
2021/06/25 00:31:48;;;;;;;9.00;8.10;;;21.20;99.90;;;;;;5073606;28;20527;-66
2021/06/25 00:34:15;;;;;;;9.57;8.77;;;21.20;99.90;;;;;;5073302;28;20500;-66
2021/06/25 00:36:42;;;;;;;8.77;7.97;;;21.20;99.90;;;;;;5074054;28;20931;-66
2021/06/25 00:39:11;;;;;;;9.10;8.33;;;21.20;99.90;;;;;;5073527;28;20510;-66
2021/06/25 00:41:38;;;;;;;8.57;7.90;;;21.20;99.90;;;;;;5070760;28;20493;-66
2021/06/25 00:44:05;;;;;;;7.00;6.50;;;21.20;99.90;;;;;;5068142;28;20463;-66
2021/06/25 00:46:32;;;;;;;7.63;7.03;;;21.10;99.90;;;;;;5073058;28;20866;-66
2021/06/25 00:48:59;;;;;;;7.67;7.13;;;21.10;99.90;;;;;;5073046;28;20998;-66
2021/06/25 00:51:26;;;;;;;8.70;8.00;;;21.10;99.90;;;;;;5072866;28;20519;-66
2021/06/25 00:53:53;;;;;;;8.23;7.53;;;21.10;99.90;;;;;;5073365;28;20834;-66
2021/06/25 00:56:21;;;;;;;8.40;7.80;;;21.10;99.90;;;;;;5073105;28;20979;-66
2021/06/25 00:58:51;;;;;;;6.93;6.43;;;21.10;99.90;;;;;;5073132;28;20541;-66
2021/06/25 01:01:18;;;;;;;7.33;6.73;;;21.10;99.90;;;;;;5072556;28;20470;-66
2021/06/25 01:03:45;;;;;;;7.57;6.93;;;21.10;99.90;;;;;;5064618;28;20459;-66
2021/06/25 01:06:12;;;;;;;8.30;7.57;;;21.10;99.90;;;;;;5073035;28;20486;-66
2021/06/25 01:08:39;;;;;;;7.73;7.03;;;21.10;99.90;;;;;;5058739;28;20483;-66
2021/06/25 01:11:06;;;;;;;8.57;7.97;;;21.10;99.90;;;;;;5072652;28;20524;-66
2021/06/25 01:13:37;;;;;;;7.87;7.27;;;21.10;99.90;;;;;;5072264;28;20600;-66
2021/06/25 01:16:05;;;;;;;8.40;7.70;;;21.10;99.90;;;;;;5073088;28;20514;-66
2021/06/25 01:18:32;;;;;;;7.60;6.90;;;21.00;99.90;;;;;;5072519;28;20515;-66
2021/06/25 01:21:02;;;;;;;7.77;7.07;;;21.00;99.90;;;;;;5072986;28;20477;-66
2021/06/25 01:23:29;;;;;;;9.47;8.37;;;21.00;99.90;;;;;;5068143;28;20485;-66
2021/06/25 01:25:56;;;;;;;8.57;7.87;;;21.10;99.90;;;;;;5072625;28;20474;-66
2021/06/25 01:28:23;;;;;;;8.97;8.17;;;21.00;99.90;;;;;;5072348;28;20470;-66
2021/06/25 01:30:50;;;;;;;8.13;7.53;;;21.00;99.90;;;;;;5072700;28;20458;-66
2021/06/25 01:33:20;;;;;;;8.37;7.53;;;21.00;99.90;;;;;;5072093;28;20480;-66
2021/06/25 01:35:47;;;;;;;8.00;7.40;;;21.00;99.90;;;;;;5071923;28;20459;-66
2021/06/25 01:38:16;;;;;;;7.00;6.43;;;21.00;99.90;;;;;;5072256;28;20466;-66
2021/06/25 01:40:44;;;;;;;7.27;6.57;;;21.00;99.90;;;;;;5072391;28;20454;-66
2021/06/25 01:43:13;;;;;;;7.00;6.50;;;21.00;99.90;;;;;;5063541;28;20462;-66
2021/06/25 01:45:41;;;;;;;7.10;6.60;;;21.00;99.90;;;;;;5070091;28;20454;-66
2021/06/25 01:48:09;;;;;;;7.00;6.30;;;21.00;99.90;;;;;;5072459;28;21100;-66
2021/06/25 01:50:39;;;;;;;6.80;6.30;;;21.10;99.90;;;;;;5071542;28;20497;-66
2021/06/25 01:53:08;;;;;;;6.80;6.30;;;21.00;99.90;;;;;;5072335;28;21109;-66
2021/06/25 01:55:41;;;;;;;8.10;7.50;;;21.10;99.90;;;;;;5072129;28;20490;-66
2021/06/25 01:58:09;;;;;;;7.40;6.80;;;21.00;99.90;;;;;;5072443;28;20531;-66
2021/06/25 02:00:36;;;;;;;6.80;6.20;;;21.00;99.90;;;;;;5071826;28;20493;-66
2021/06/25 02:03:03;;;;;;;7.87;6.70;;;21.00;99.90;;;;;;5067178;28;20809;-66
2021/06/25 02:05:30;;;;;;;7.30;6.60;;;21.10;99.90;;;;;;5068991;28;20873;-66
2021/06/25 02:07:57;;;;;;;6.90;6.40;;;21.00;99.90;;;;;;5064437;28;20467;-66
2021/06/25 02:10:24;;;;;;;6.37;5.87;;;21.00;99.90;;;;;;5064398;28;21003;-66
2021/06/25 02:12:52;;;;;;;7.17;6.50;;;21.00;99.90;;;;;;5072078;28;20528;-66
2021/06/25 02:15:19;;;;;;;6.83;6.33;;;21.00;99.90;;;;;;5068793;28;20537;-66
2021/06/25 02:17:46;;;;;;;5.50;5.10;;;21.10;99.90;;;;;;5071266;28;20484;-66
2021/06/25 02:20:15;;;;;;;5.40;5.00;;;21.00;99.90;;;;;;5072271;28;20470;-66
2021/06/25 02:22:41;;;;;;;6.73;5.73;;;21.10;99.90;;;;;;5071515;28;20472;-66
2021/06/25 02:25:11;;;;;;;5.50;5.10;;;21.10;99.90;;;;;;5071061;28;21008;-66
2021/06/25 02:27:38;;;;;;;5.40;4.90;;;21.10;99.90;;;;;;5070707;28;20474;-66
2021/06/25 02:30:09;;;;;;;5.13;4.73;;;21.00;99.90;;;;;;5072347;28;20807;-66
2021/06/25 02:32:36;;;;;;;5.47;5.07;;;21.00;99.90;;;;;;5071546;28;20925;-66
2021/06/25 02:35:03;;;;;;;5.07;4.67;;;21.00;99.90;;;;;;5071782;28;20470;-66
2021/06/25 02:37:30;;;;;;;6.43;5.93;;;21.00;99.90;;;;;;5071474;28;20823;-66
2021/06/25 02:39:57;;;;;;;6.70;6.20;;;21.00;99.90;;;;;;5072142;28;20470;-66
2021/06/25 02:42:24;;;;;;;5.47;5.07;;;21.00;99.90;;;;;;5068972;28;20473;-66
2021/06/25 02:44:50;;;;;;;5.60;5.10;;;21.00;99.90;;;;;;5071988;28;20469;-66
2021/06/25 02:47:19;;;;;;;5.40;4.80;;;21.00;99.90;;;;;;5071893;28;20466;-66
2021/06/25 02:49:45;;;;;;;6.47;6.07;;;21.00;99.90;;;;;;5062330;28;20471;-66
2021/06/25 02:52:12;;;;;;;5.80;5.40;;;21.00;99.90;;;;;;5065862;28;20965;-66
2021/06/25 02:54:39;;;;;;;5.70;5.30;;;21.00;99.90;;;;;;5053653;28;20473;-66
2021/06/25 02:57:07;;;;;;;21.57;19.27;;;21.00;99.90;;;;;;5053532;28;20467;-66
2021/06/25 02:59:34;;;;;;;48.90;43.70;;;21.00;99.90;;;;;;5053995;28;20463;-66
2021/06/25 03:02:01;;;;;;;39.43;35.13;;;21.00;99.90;;;;;;5054994;28;20862;-66
2021/06/25 03:04:29;;;;;;;25.23;22.27;;;21.10;99.90;;;;;;5071182;28;20473;-66
2021/06/25 03:06:56;;;;;;;9.93;9.00;;;21.20;99.90;;;;;;5074006;28;20857;-66
2021/06/25 03:09:23;;;;;;;8.00;7.30;;;21.20;99.90;;;;;;5067706;28;20467;-66
2021/06/25 03:11:50;;;;;;;6.50;6.00;;;21.20;99.90;;;;;;5053408;28;20466;-66
2021/06/25 03:14:17;;;;;;;7.53;6.83;;;21.20;99.90;;;;;;5064474;28;20992;-66
2021/06/25 03:16:43;;;;;;;7.73;6.97;;;21.30;99.90;;;;;;5073337;28;20992;-66
2021/06/25 03:19:11;;;;;;;7.00;6.50;;;21.20;99.90;;;;;;5073588;28;20807;-66
2021/06/25 03:21:39;;;;;;;10.50;7.50;;;21.30;99.90;;;;;;5074773;28;20477;-66
2021/06/25 03:24:07;;;;;;;5.70;5.20;;;21.20;99.90;;;;;;5075244;28;20553;-66
2021/06/25 03:26:33;;;;;;;6.80;6.30;;;21.20;99.90;;;;;;5075064;28;20466;-66
2021/06/25 03:29:00;;;;;;;6.30;5.80;;;21.30;99.90;;;;;;5075313;28;20476;-66
2021/06/25 03:31:27;;;;;;;6.87;6.27;;;21.20;99.90;;;;;;5074842;28;20468;-66
2021/06/25 03:33:54;;;;;;;6.30;5.50;;;21.20;99.90;;;;;;5075144;28;20467;-66
2021/06/25 03:36:21;;;;;;;7.40;6.70;;;21.20;99.90;;;;;;5075278;28;20966;-66
2021/06/25 03:38:49;;;;;;;7.60;7.00;;;21.20;99.90;;;;;;5074468;28;20480;-66
2021/06/25 03:41:16;;;;;;;8.90;8.10;;;21.20;99.90;;;;;;5071081;28;20809;-66
2021/06/25 03:43:43;;;;;;;8.03;6.97;;;21.20;99.90;;;;;;5054466;28;20468;-66
2021/06/25 03:46:10;;;;;;;8.07;7.30;;;21.20;99.90;;;;;;5054931;28;20525;-66
2021/06/25 03:48:37;;;;;;;7.00;6.50;;;21.10;99.90;;;;;;5054549;28;20485;-66
2021/06/25 03:51:07;;;;;;;7.50;6.80;;;21.10;99.90;;;;;;5054540;28;20465;-66
2021/06/25 03:53:34;;;;;;;8.63;7.90;;;21.10;99.90;;;;;;5054364;28;20526;-66
2021/06/25 03:56:11;;;;;;;8.13;7.50;;;21.10;99.90;;;;;;5054733;28;20477;-66
2021/06/25 03:58:38;;;;;;;7.93;7.33;;;21.10;99.90;;;;;;5054214;28;20490;-66
2021/06/25 04:01:05;;;;;;;8.47;7.20;;;21.10;99.90;;;;;;5054661;28;20467;-66
2021/06/25 04:03:32;;;;;;;8.37;7.57;;;21.10;99.90;;;;;;5063157;28;20552;-66
2021/06/25 04:05:59;;;;;;;7.23;6.73;;;21.10;99.90;;;;;;5074672;28;20952;-66
2021/06/25 04:08:28;;;;;;;6.60;6.10;;;21.10;99.90;;;;;;5074544;28;20470;-65
2021/06/25 04:10:55;;;;;;;7.60;6.97;;;21.10;99.90;;;;;;5055416;28;20463;-66
2021/06/25 04:13:23;;;;;;;7.33;6.73;;;21.10;99.90;;;;;;5054326;28;20467;-66
2021/06/25 04:15:50;;;;;;;7.80;7.20;;;21.10;99.90;;;;;;5053968;28;20437;-66
2021/06/25 04:18:17;;;;;;;7.10;6.50;;;21.10;99.90;;;;;;5054157;28;20475;-66
2021/06/25 04:20:45;;;;;;;8.03;7.43;;;21.10;99.90;;;;;;5053982;28;20486;-66
2021/06/25 04:23:12;;;;;;;7.70;7.10;;;21.20;99.90;;;;;;5054190;28;20463;-66
2021/06/25 04:25:39;;;;;;;9.33;8.23;;;21.20;99.90;;;;;;5053968;28;20474;-66
2021/06/25 04:28:06;;;;;;;7.63;7.03;;;21.20;99.90;;;;;;5054069;28;20473;-66
2021/06/25 04:30:36;;;;;;;6.83;6.27;;;21.20;99.90;;;;;;5053667;28;20459;-67
2021/06/25 04:33:03;;;;;;;7.10;6.50;;;21.20;99.90;;;;;;5053994;28;20495;-66
2021/06/25 04:35:31;;;;;;;7.63;7.03;;;21.20;99.90;;;;;;5053862;28;20475;-66
2021/06/25 04:38:01;;;;;;;6.97;6.27;;;21.30;99.90;;;;;;5053543;28;20554;-66
2021/06/25 04:40:28;;;;;;;8.03;7.30;;;21.30;99.90;;;;;;5054202;28;20502;-66
2021/06/25 04:42:55;;;;;;;6.90;6.40;;;21.30;99.90;;;;;;5053424;28;20477;-66
2021/06/25 04:45:22;;;;;;;7.70;7.00;;;21.30;99.90;;;;;;5053687;28;21066;-66
2021/06/25 04:47:50;;;;;;;9.93;8.83;;;21.30;99.90;;;;;;5053317;28;20471;-66
2021/06/25 04:50:17;;;;;;;11.03;10.03;;;21.30;99.90;;;;;;5053627;28;20964;-66
2021/06/25 04:52:44;;;;;;;9.83;8.87;;;21.30;99.90;;;;;;5053279;28;20485;-66
2021/06/25 04:55:11;;;;;;;56.97;48.50;;;21.40;99.90;;;;;;5053664;28;20464;-66
2021/06/25 04:57:39;;;;;;;34.50;30.90;;;21.40;99.90;;;;;;5053051;28;20478;-66
2021/06/25 05:00:07;;;;;;;41.00;36.90;;;21.40;99.90;;;;;;5053599;28;20459;-66
2021/06/25 05:02:34;;;;;;;22.23;20.10;;;21.50;99.90;;;;;;5054388;28;20463;-66
2021/06/25 05:05:02;;;;;;;21.73;19.73;;;21.60;99.90;;;;;;5073265;28;21518;-67
2021/06/25 05:07:29;;;;;;;26.17;23.43;;;21.60;99.90;;;;;;5073427;28;20469;-66
2021/06/25 05:09:56;;;;;;;17.10;15.50;;;21.60;99.90;;;;;;5061987;28;20547;-66
2021/06/25 05:12:25;;;;;;;12.50;11.30;;;21.60;99.90;;;;;;5051415;28;20474;-66
2021/06/25 05:14:52;;;;;;;11.43;10.33;;;21.60;99.90;;;;;;5065425;28;20473;-66
2021/06/25 05:17:19;;;;;;;9.97;8.93;;;21.60;99.90;;;;;;5071005;28;20458;-66
2021/06/25 05:19:46;;;;;;;9.50;8.60;;;21.60;99.90;;;;;;5071551;28;20476;-66
2021/06/25 05:22:14;;;;;;;10.57;9.60;;;21.60;99.90;;;;;;5072138;28;20475;-66
2021/06/25 05:24:41;;;;;;;9.00;8.10;;;21.70;99.90;;;;;;5071716;28;20469;-66
2021/06/25 05:27:09;;;;;;;9.33;8.53;;;21.70;99.90;;;;;;5072398;28;20978;-66
2021/06/25 05:29:36;;;;;;;11.23;10.07;;;21.70;99.90;;;;;;5073034;28;20470;-66
2021/06/25 05:32:03;;;;;;;9.43;8.60;;;21.70;99.90;;;;;;5072662;28;20803;-65
2021/06/25 05:34:30;;;;;;;7.80;7.10;;;21.70;99.90;;;;;;5072905;28;20880;-65
2021/06/25 05:36:57;;;;;;;10.23;9.13;;;21.70;99.90;;;;;;5072474;28;20473;-66
2021/06/25 05:39:25;;;;;;;9.33;7.87;;;21.70;99.90;;;;;;5072712;28;20486;-66
2021/06/25 05:41:52;;;;;;;9.03;8.23;;;21.70;99.90;;;;;;5063680;28;20476;-66
2021/06/25 05:44:19;;;;;;;10.00;8.97;;;21.70;99.90;;;;;;5052931;28;20807;-66
2021/06/25 05:46:46;;;;;;;9.67;8.87;;;21.70;99.90;;;;;;5062100;28;20464;-66
2021/06/25 05:49:12;;;;;;;8.30;7.60;;;21.70;99.90;;;;;;5072495;28;20466;-66
2021/06/25 05:51:39;;;;;;;7.37;6.80;;;21.80;99.90;;;;;;5069804;28;20470;-66
2021/06/25 05:54:06;;;;;;;7.00;6.40;;;21.80;99.90;;;;;;5066603;28;20792;-66
2021/06/25 05:56:34;;;;;;;7.17;6.57;;;21.80;99.90;;;;;;5072642;28;20458;-65
2021/06/25 05:59:01;;;;;;;7.70;7.10;;;21.80;99.90;;;;;;5058305;28;20481;-66
2021/06/25 06:01:29;;;;;;;8.47;7.77;;;21.90;99.90;;;;;;5057059;28;20501;-66
2021/06/25 06:03:56;;;;;;;7.60;6.90;;;21.90;99.90;;;;;;5072201;28;20458;-66
2021/06/25 06:06:23;;;;;;;8.90;8.00;;;21.90;99.90;;;;;;5072589;28;20978;-66
2021/06/25 06:08:50;;;;;;;8.40;7.30;;;21.90;99.90;;;;;;5071833;28;20470;-65
2021/06/25 06:11:17;;;;;;;7.83;7.13;;;21.90;99.90;;;;;;5072388;28;20544;-65
2021/06/25 06:13:45;;;;;;;7.00;6.50;;;22.00;99.90;;;;;;5072107;28;20470;-65
2021/06/25 06:16:12;;;;;;;9.90;8.43;;;22.00;99.90;;;;;;5072391;28;20454;-65
2021/06/25 06:18:44;;;;;;;8.10;7.33;;;22.00;99.90;;;;;;5072419;28;20470;-65
2021/06/25 06:21:12;;;;;;;10.93;8.93;;;22.10;99.90;;;;;;5071991;28;21300;-65
2021/06/25 06:31:56;;;;;;;9.37;8.47;;;22.20;99.90;;;;;;5076269;28;20488;-65
2021/06/25 06:34:23;;;;;;;8.50;7.77;;;22.20;99.90;;;;;;5075844;28;20537;-66
2021/06/25 06:36:50;;;;;;;9.70;8.80;;;22.30;99.90;;;;;;5076101;28;20470;-66
2021/06/25 06:39:18;;;;;;;10.40;9.40;;;22.30;99.80;;;;;;5075477;28;20553;-66
2021/06/25 06:41:45;;;;;;;9.50;8.50;;;22.40;99.70;;;;;;5068474;28;20463;-66
2021/06/25 06:44:13;;;;;;;9.80;8.90;;;22.50;99.70;;;;;;5075337;28;20474;-66
2021/06/25 06:46:40;;;;;;;9.20;8.40;;;22.50;99.50;;;;;;5076159;28;20807;-66
2021/06/25 06:49:07;;;;;;;9.47;8.67;;;22.60;99.40;;;;;;5075936;28;20968;-66
2021/06/25 06:51:34;;;;;;;10.90;8.07;;;22.70;99.00;;;;;;5075809;28;20464;-66
2021/06/25 06:54:01;;;;;;;15.47;9.30;;;22.80;99.00;;;;;;5075909;28;20470;-67
2021/06/25 06:56:32;;;;;;;11.50;8.23;;;22.80;98.70;;;;;;5075455;28;20472;-66
2021/06/25 06:59:00;;;;;;;7.40;6.80;;;22.90;98.10;;;;;;5075672;28;20474;-66
2021/06/25 07:01:30;;;;;;;8.50;7.70;;;22.90;98.00;;;;;;5075200;28;20466;-66
2021/06/25 07:03:57;;;;;;;7.97;7.33;;;23.00;98.00;;;;;;5075845;28;20484;-66
2021/06/25 07:06:24;;;;;;;9.23;8.30;;;23.00;97.90;;;;;;5075377;28;20540;-66
2021/06/25 07:08:51;;;;;;;8.47;7.67;;;23.00;97.40;;;;;;5075619;28;20811;-67
2021/06/25 07:11:18;;;;;;;7.00;6.40;;;23.00;97.40;;;;;;5075064;28;20481;-66
2021/06/25 07:13:45;;;;;;;7.63;7.00;;;23.00;97.40;;;;;;5075478;28;20458;-66
2021/06/25 07:16:13;;;;;;;7.77;7.10;;;23.00;97.50;;;;;;5074993;28;20546;-66
2021/06/25 07:18:42;;;;;;;7.93;6.37;;;22.90;97.90;;;;;;5075434;28;20477;-66
2021/06/25 07:21:09;;;;;;;13.63;7.77;;;22.90;97.50;;;;;;5075395;28;20491;-66
2021/06/25 07:23:35;;;;;;;7.90;7.13;;;23.00;97.40;;;;;;5074920;28;20970;-66
2021/06/25 07:26:02;;;;;;;7.13;6.53;;;23.00;97.40;;;;;;5075274;28;20959;-66
2021/06/25 07:28:29;;;;;;;9.73;7.80;;;23.00;97.50;;;;;;5074823;28;20557;-66
2021/06/25 07:30:56;;;;;;;8.10;7.40;;;23.00;97.20;;;;;;5075243;28;20546;-66
2021/06/25 07:33:23;;;;;;;8.83;8.00;;;23.00;97.20;;;;;;5074300;28;20799;-66
2021/06/25 07:35:53;;;;;;;8.90;7.20;;;23.00;96.60;;;;;;5074878;28;20470;-66
2021/06/25 07:38:20;;;;;;;7.40;6.50;;;23.00;96.20;;;;;;5074884;28;20812;-66
2021/06/25 07:40:47;;;;;;;7.20;6.60;;;23.00;96.20;;;;;;5075338;28;20468;-66
2021/06/25 07:43:14;;;;;;;6.70;6.10;;;23.00;96.10;;;;;;5066116;28;20514;-66
2021/06/25 07:45:40;;;;;;;6.97;6.37;;;23.00;95.90;;;;;;5074859;28;20454;-66
2021/06/25 07:48:08;;;;;;;7.40;6.70;;;23.10;95.70;;;;;;5074786;28;20990;-66
2021/06/25 07:50:35;;;;;;;8.80;8.00;;;23.20;95.50;;;;;;5074847;28;20458;-66
2021/06/25 07:53:06;;;;;;;6.80;6.30;;;23.20;95.20;;;;;;5074970;28;20791;-66
2021/06/25 07:55:33;;;;;;;6.30;5.90;;;23.30;94.40;;;;;;5074498;28;20459;-66
2021/06/25 07:58:00;;;;;;;7.50;6.43;;;23.50;94.30;;;;;;5074636;28;20960;-66
2021/06/25 08:00:27;;;;;;;7.37;6.77;;;23.60;94.20;;;;;;5074515;28;20473;-66
2021/06/25 08:02:54;;;;;;;8.50;7.10;;;23.70;93.70;;;;;;5058061;28;20542;-66
2021/06/25 08:05:21;;;;;;;6.50;6.00;;;23.80;93.50;;;;;;5054189;28;20463;-66
2021/06/25 08:07:48;;;;;;;7.17;6.57;;;23.90;93.30;;;;;;5054723;28;20797;-66
2021/06/25 08:10:16;;;;;;;8.83;8.10;;;24.00;92.60;;;;;;5054271;28;20539;-66
2021/06/25 08:12:43;;;;;;;8.10;7.40;;;24.20;92.50;;;;;;5054313;28;20475;-66
2021/06/25 08:15:11;;;;;;;7.03;6.43;;;24.40;92.10;;;;;;5054428;28;20469;-66
2021/06/25 08:17:38;;;;;;;9.03;8.23;;;24.60;91.90;;;;;;5053825;28;20535;-66
2021/06/25 08:20:07;;;;;;;7.07;6.47;;;24.70;91.30;;;;;;5054600;28;20468;-67
2021/06/25 08:22:34;;;;;;;6.80;5.97;;;24.70;90.60;;;;;;5053898;28;20478;-66
2021/06/25 08:25:01;;;;;;;7.00;6.00;;;24.80;90.40;;;;;;5054303;28;20471;-66
2021/06/25 08:27:29;;;;;;;5.93;5.50;;;24.80;90.30;;;;;;5053732;28;20467;-66
2021/06/25 08:29:56;;;;;;;10.10;7.47;;;24.80;90.40;;;;;;5054378;28;20468;-66
2021/06/25 08:32:23;;;;;;;7.93;7.23;;;24.90;90.40;;;;;;5053760;28;20486;-66
2021/06/25 08:34:49;;;;;;;7.00;6.40;;;25.00;90.30;;;;;;5053805;28;20542;-66
2021/06/25 08:37:17;;;;;;;8.23;6.80;;;25.20;90.50;;;;;;5055577;28;20498;-66
2021/06/25 08:39:43;;;;;;;8.57;7.77;;;25.30;89.00;;;;;;5074134;28;20796;-67
2021/06/25 08:42:10;;;;;;;7.33;6.50;;;25.40;88.40;;;;;;5065465;28;20480;-66
2021/06/25 08:44:40;;;;;;;6.50;6.03;;;25.40;87.90;;;;;;5073419;28;20480;-66
2021/06/25 08:47:08;;;;;;;8.13;7.33;;;25.40;87.70;;;;;;5072958;28;20819;-67
2021/06/25 08:49:36;;;;;;;5.93;5.53;;;25.30;87.80;;;;;;5073433;28;20469;-67
2021/06/25 08:52:03;;;;;;;7.33;6.77;;;25.20;88.00;;;;;;5073884;28;20462;-67
2021/06/25 08:54:30;;;;;;;8.57;7.90;;;25.10;88.20;;;;;;5073210;28;20485;-66
2021/06/25 08:56:57;;;;;;;8.53;7.83;;;25.10;88.80;;;;;;5073735;28;20478;-66
2021/06/25 08:59:24;;;;;;;7.97;7.00;;;25.00;89.80;;;;;;5073031;28;20789;-66
2021/06/25 09:01:53;;;;;;;7.20;6.47;;;25.00;89.20;;;;;;5073484;28;20473;-66
2021/06/25 09:04:34;;;;;;;8.57;7.87;;;24.90;89.60;;;;;;5073303;28;20476;-66
2021/06/25 09:07:01;;;;;;;9.03;7.87;;;24.90;90.00;;;;;;5073662;28;20469;-66
2021/06/25 09:09:39;;;;;;;7.33;6.73;;;24.90;89.50;;;;;;5072882;28;20493;-66
2021/06/25 09:12:12;;;;;;;10.07;9.20;;;25.00;89.10;;;;;;5073264;28;20470;-66
2021/06/25 09:14:59;;;;;;;7.40;6.80;;;25.00;89.10;;;;;;5072920;28;20462;-66
2021/06/25 09:17:29;;;;;;;8.33;6.30;;;25.00;89.30;;;;;;5072586;28;21008;-67
2021/06/25 09:19:56;;;;;;;6.93;6.40;;;25.00;89.20;;;;;;5073161;28;20477;-66
2021/06/25 09:22:23;;;;;;;9.73;8.70;;;25.10;89.30;;;;;;5072871;28;20473;-66
2021/06/25 09:25:01;;;;;;;10.93;9.80;;;25.10;88.90;;;;;;5073241;28;20465;-66
2021/06/25 09:27:29;;;;;;;10.70;9.70;;;25.10;88.80;;;;;;5072739;28;20807;-66
2021/06/25 09:29:56;;;;;;;10.37;9.37;;;25.10;89.50;;;;;;5072959;28;20462;-66
2021/06/25 09:32:34;;;;;;;10.23;9.27;;;25.10;89.60;;;;;;5072594;28;20470;-66
2021/06/25 09:35:13;;;;;;;9.00;8.10;;;25.20;89.40;;;;;;5072762;28;20466;-66
2021/06/25 09:37:42;;;;;;;7.90;7.20;;;25.20;89.40;;;;;;5067203;28;22078;-67
2021/06/25 09:40:13;;;;;;;7.17;6.50;;;25.30;87.90;;;;;;5052975;28;20550;-66
2021/06/25 09:42:42;;;;;;;8.53;7.73;;;25.40;87.10;;;;;;5067457;28;20463;-66
2021/06/25 09:45:11;;;;;;;8.10;7.40;;;25.40;87.00;;;;;;5072630;28;20473;-67
2021/06/25 09:47:39;;;;;;;7.43;6.33;;;25.50;86.70;;;;;;5072436;28;20466;-66
2021/06/25 09:50:13;;;;;;;12.40;11.50;;;25.50;86.20;;;;;;5072745;28;21037;-66
2021/06/25 09:52:48;;;;;;;8.63;7.93;;;25.50;85.20;;;;;;5072539;28;20972;-66
2021/06/25 09:55:17;;;;;;;7.23;6.53;;;25.60;83.90;;;;;;5072675;28;20523;-66
2021/06/25 10:03:49;;;;;;;6.60;6.00;;;25.60;82.00;;;;;;5072513;28;20520;-67
2021/06/25 10:06:19;;;;;;;5.90;5.50;;;25.60;81.90;;;;;;5072671;28;20529;-66
2021/06/25 10:08:46;;;;;;;6.57;5.83;;;25.60;82.40;;;;;;5072168;28;20467;-66
2021/06/25 10:11:15;;;;;;;7.00;6.33;;;25.60;82.40;;;;;;5072167;28;20476;-66
2021/06/25 10:13:43;;;;;;;6.73;6.23;;;25.60;82.70;;;;;;5072500;28;20980;-66
2021/06/25 10:16:11;;;;;;;6.20;5.80;;;25.60;82.70;;;;;;5072316;28;21501;-66
2021/06/25 10:18:41;;;;;;;6.07;5.50;;;25.60;82.30;;;;;;5072405;28;20995;-66
2021/06/25 10:21:10;;;;;;;6.10;5.70;;;25.60;82.00;;;;;;5071969;28;20533;-67
2021/06/25 10:23:40;;;;;;;8.20;6.07;;;25.60;82.10;;;;;;5072474;28;20462;-66
2021/06/25 10:26:09;;;;;;;6.40;5.87;;;25.60;81.60;;;;;;5072026;28;20553;-66
2021/06/25 10:28:37;;;;;;;7.47;6.87;;;25.70;82.30;;;;;;5072352;28;20470;-66
2021/06/25 10:31:05;;;;;;;6.33;5.93;;;25.70;82.40;;;;;;5072149;28;20474;-66
2021/06/25 10:33:32;;;;;;;7.33;6.73;;;25.70;81.80;;;;;;5072047;28;20481;-66
2021/06/25 10:36:02;;;;;;;7.23;6.63;;;25.70;81.40;;;;;;5072095;28;20472;-67
2021/06/25 10:38:29;;;;;;;6.30;5.90;;;25.70;82.20;;;;;;5072383;28;20964;-66
2021/06/25 10:40:59;;;;;;;6.70;6.20;;;25.70;80.80;;;;;;5070618;28;20470;-66
2021/06/25 10:43:43;;;;;;;7.80;7.20;;;25.80;81.60;;;;;;5065580;28;21003;-66
2021/06/25 10:46:36;;;;;;;6.90;6.30;;;25.80;80.60;;;;;;5072067;28;20796;-66
2021/06/25 10:49:08;;;;;;;14.23;8.47;;;25.80;81.00;;;;;;5071681;28;20474;-66
2021/06/25 10:51:37;;;;;;;6.87;6.27;;;25.90;80.50;;;;;;5072500;28;20817;-67
2021/06/25 10:54:16;;;;;;;6.03;5.47;;;25.90;79.50;;;;;;5071693;28;20481;-67
2021/06/25 10:57:01;;;;;;;6.10;5.60;;;25.90;78.80;;;;;;5072081;28;20465;-67
2021/06/25 10:59:29;;;;;;;7.97;6.00;;;25.90;78.50;;;;;;5071895;28;20462;-65
2021/06/25 11:01:58;;;;;;;6.60;5.70;;;26.00;78.60;;;;;;5071919;28;21023;-66
2021/06/25 11:04:43;;;;;;;7.43;6.83;;;25.90;78.70;;;;;;5072027;28;20799;-65
2021/06/25 11:07:13;;;;;;;9.97;6.30;;;26.00;78.70;;;;;;5072272;28;20541;-65
2021/06/25 11:09:58;;;;;;;6.13;5.63;;;26.00;78.10;;;;;;5073737;28;20931;-65
2021/06/25 11:12:28;;;;;;;5.83;5.43;;;26.00;75.70;;;;;;5075061;28;20462;-65
2021/06/25 11:15:17;;;;;;;4.83;4.53;;;26.00;76.90;;;;;;5060231;28;20477;-65
2021/06/25 11:17:48;;;;;;;5.83;5.43;;;26.00;76.70;;;;;;5055118;28;21080;-65
2021/06/25 11:20:21;;;;;;;5.80;5.40;;;26.00;76.70;;;;;;5055679;28;20552;-65
2021/06/25 11:23:06;;;;;;;4.70;4.30;;;26.00;76.80;;;;;;5055256;28;20459;-65
2021/06/25 11:25:39;;;;;;;6.00;5.40;;;26.00;77.10;;;;;;5055081;28;20462;-65
2021/06/25 11:28:16;;;;;;;8.90;6.03;;;26.00;76.60;;;;;;5055294;28;20482;-66
2021/06/25 11:31:00;;;;;;;6.23;5.33;;;26.00;75.70;;;;;;5055043;28;20770;-65
2021/06/25 11:33:33;;;;;;;4.90;4.50;;;25.90;75.20;;;;;;5054823;28;20877;-65
2021/06/25 11:36:21;;;;;;;4.10;3.70;;;25.90;74.50;;;;;;5055253;28;20550;-66
2021/06/25 11:39:22;;;;;;;4.53;4.13;;;26.00;73.50;;;;;;5054863;28;20470;-65
2021/06/25 11:41:53;;;;;;;4.37;3.53;;;26.00;73.40;;;;;;5052057;28;20465;-66
2021/06/25 11:44:23;;;;;;;3.93;3.47;;;26.00;72.50;;;;;;5055171;28;20972;-66
2021/06/25 11:47:10;;;;;;;3.60;3.37;;;26.00;71.40;;;;;;5054946;28;21430;-65
2021/06/25 11:49:41;;;;;;;4.47;4.03;;;26.00;71.50;;;;;;5054581;28;20525;-65
2021/06/25 11:52:11;;;;;;;4.97;4.57;;;26.00;72.50;;;;;;5074503;28;20486;-65
2021/06/25 11:54:40;;;;;;;6.10;5.13;;;26.00;71.70;;;;;;5074271;28;20494;-66
2021/06/25 11:57:16;;;;;;;5.33;4.93;;;26.10;71.10;;;;;;5074816;28;20800;-65
2021/06/25 11:59:56;;;;;;;4.23;3.93;;;26.10;70.90;;;;;;5074128;28;21002;-66
2021/06/25 12:02:23;;;;;;;4.27;3.90;;;26.20;71.40;;;;;;5074830;28;20476;-66
2021/06/25 12:04:50;;;;;;;3.27;3.07;;;26.30;70.80;;;;;;5074304;28;20932;-66
2021/06/25 12:07:20;;;;;;;4.83;4.37;;;26.30;70.50;;;;;;5074439;28;20462;-66
2021/06/25 12:09:50;;;;;;;3.80;3.50;;;26.30;70.20;;;;;;5074265;28;20463;-66
2021/06/25 12:12:26;;;;;;;4.07;3.70;;;26.30;70.30;;;;;;5074422;28;20480;-66
2021/06/25 12:14:58;;;;;;;4.83;4.10;;;26.30;70.20;;;;;;5074242;28;20557;-66
2021/06/25 12:17:26;;;;;;;4.00;3.63;;;26.30;69.10;;;;;;5074169;28;20482;-67
2021/06/25 12:19:58;;;;;;;3.90;3.60;;;26.30;68.20;;;;;;5073766;28;20800;-66
2021/06/25 12:22:25;;;;;;;3.30;3.00;;;26.40;68.60;;;;;;5074559;28;20545;-66
2021/06/25 12:24:54;;;;;;;4.00;3.70;;;26.40;67.90;;;;;;5073752;28;20466;-66
2021/06/25 12:27:35;;;;;;;3.57;3.37;;;26.40;68.00;;;;;;5074343;28;20462;-66
2021/06/25 12:30:11;;;;;;;7.87;3.97;;;26.40;67.70;;;;;;5074196;28;20454;-66
2021/06/25 12:32:38;;;;;;;4.30;3.60;;;26.40;67.80;;;;;;5074122;28;20462;-67
2021/06/25 12:35:10;;;;;;;4.57;3.67;;;26.30;67.50;;;;;;5074084;28;20498;-66
2021/06/25 12:37:52;;;;;;;5.50;4.97;;;26.30;68.10;;;;;;5074191;28;20470;-66
2021/06/25 12:40:39;;;;;;;4.00;3.70;;;26.30;68.20;;;;;;5073950;28;20458;-65
2021/06/25 12:43:06;;;;;;;4.40;4.00;;;26.40;68.20;;;;;;5065238;28;20478;-66
2021/06/25 12:45:46;;;;;;;5.43;4.47;;;26.40;68.80;;;;;;5073533;28;20480;-65
2021/06/25 12:48:15;;;;;;;5.37;4.17;;;26.40;68.90;;;;;;5073773;28;20474;-66
2021/06/25 12:50:43;;;;;;;5.73;4.27;;;26.40;68.70;;;;;;5065567;28;20467;-65
2021/06/25 12:53:11;;;;;;;8.77;4.33;;;26.50;69.20;;;;;;5053661;28;20467;-65
2021/06/25 12:55:38;;;;;;;3.87;3.57;;;26.60;69.50;;;;;;5053365;28;20806;-66
2021/06/25 12:58:06;;;;;;;7.43;6.47;;;26.60;71.60;;;;;;5053591;28;20467;-66
2021/06/25 13:00:32;;;;;;;4.17;3.83;;;26.60;70.40;;;;;;5053266;28;20474;-66
2021/06/25 13:03:01;;;;;;;4.10;3.60;;;26.60;69.60;;;;;;5053497;28;20474;-66
2021/06/25 13:05:32;;;;;;;3.83;3.43;;;26.60;68.90;;;;;;5053251;28;20493;-66
2021/06/25 13:08:00;;;;;;;3.60;3.40;;;26.50;68.70;;;;;;5053296;28;20475;-66
2021/06/25 13:10:27;;;;;;;4.20;3.90;;;26.50;68.30;;;;;;5053275;28;20772;-66